Time;durP1;ratioP1;P1;durP2;ratioP2;P2;SDS_P1;SDS_P2;PMS_P1;PMS_P2;Temp;Humidity;BMP_temperature;BMP_pressure;BME280_temperature;BME280_humidity;BME280_pressure;Samples;Min_cycle;Max_cycle;Signal;HPM_P1;HPM_P2
2021/04/04 00:01:46;;;;;;;0.43;0.00;;;8.80;57.50;;;;;;4995958;28;20037;-80
2021/04/04 00:04:12;;;;;;;2.65;0.57;;;8.80;57.60;;;;;;4993652;28;20069;-78
2021/04/04 00:06:38;;;;;;;0.55;0.20;;;8.80;57.70;;;;;;4996090;28;20483;-79
2021/04/04 00:09:04;;;;;;;0.57;0.43;;;8.80;57.70;;;;;;4978889;28;20053;-80
2021/04/04 00:11:31;;;;;;;1.65;0.60;;;8.80;57.90;;;;;;4978179;28;20077;-78
2021/04/04 00:13:57;;;;;;;0.52;0.40;;;8.70;58.00;;;;;;4995929;28;20030;-78
2021/04/04 00:16:23;;;;;;;1.08;0.45;;;8.70;58.30;;;;;;4995220;28;20034;-79
2021/04/04 00:18:49;;;;;;;5.15;0.77;;;8.60;58.40;;;;;;4993833;28;20031;-80
2021/04/04 00:21:15;;;;;;;0.90;0.57;;;8.60;58.50;;;;;;4995596;28;20384;-79
2021/04/04 00:23:41;;;;;;;0.35;0.13;;;8.50;58.60;;;;;;4995861;28;20035;-80
2021/04/04 00:26:07;;;;;;;0.03;0.00;;;8.50;59.20;;;;;;4995693;28;20390;-79
2021/04/04 00:28:33;;;;;;;0.13;0.08;;;8.50;58.70;;;;;;4978191;28;20057;-79
2021/04/04 00:30:59;;;;;;;6.40;0.43;;;8.50;58.80;;;;;;4993360;28;20050;-80
2021/04/04 00:33:25;;;;;;;1.52;0.68;;;8.50;58.70;;;;;;4994597;28;20450;-79
2021/04/04 00:35:52;;;;;;;1.50;0.40;;;8.50;58.70;;;;;;4995541;28;20041;-79
2021/04/04 00:38:18;;;;;;;0.20;0.00;;;8.50;58.70;;;;;;4994335;28;20053;-79
2021/04/04 00:40:44;;;;;;;0.60;0.38;;;8.50;58.60;;;;;;4993972;28;20038;-79
2021/04/04 00:43:10;;;;;;;1.08;0.32;;;8.50;58.60;;;;;;4993775;28;20050;-79
2021/04/04 00:45:37;;;;;;;0.00;0.00;;;8.40;58.50;;;;;;4996316;28;20487;-79
2021/04/04 00:48:04;;;;;;;0.25;0.15;;;8.40;58.60;;;;;;4995363;28;20480;-79
2021/04/04 00:50:32;;;;;;;3.50;0.63;;;8.40;58.60;;;;;;4993925;28;20054;-79
2021/04/04 00:52:58;;;;;;;2.25;0.30;;;8.30;58.60;;;;;;4995315;28;20026;-79
2021/04/04 00:55:24;;;;;;;4.75;0.90;;;8.30;58.70;;;;;;4994957;28;20037;-79
2021/04/04 00:57:51;;;;;;;1.08;0.20;;;8.30;58.80;;;;;;4994474;28;20039;-79
2021/04/04 01:00:19;;;;;;;0.20;0.10;;;8.30;58.90;;;;;;4993496;28;20034;-79
2021/04/04 01:02:46;;;;;;;7.93;0.88;;;8.20;58.80;;;;;;4993673;28;20391;-79
2021/04/04 01:05:14;;;;;;;0.25;0.08;;;8.20;58.80;;;;;;4995203;28;20023;-80
2021/04/04 01:07:43;;;;;;;0.68;0.20;;;8.20;58.80;;;;;;4978786;28;20033;-79
2021/04/04 01:10:10;;;;;;;0.73;0.30;;;8.20;59.00;;;;;;4973185;28;20411;-79
2021/04/04 01:13:25;;;;;;;0.60;0.10;;;8.10;59.00;;;;;;4959681;28;20049;-79
2021/04/04 01:16:17;;;;;;;0.00;0.00;;;8.10;59.00;;;;;;4971591;28;20035;-78
2021/04/04 01:19:00;;;;;;;3.40;0.52;;;8.10;59.20;;;;;;4973406;28;20149;-78
2021/04/04 01:21:26;;;;;;;1.75;0.52;;;8.00;59.40;;;;;;4938686;28;20035;-79
2021/04/04 01:24:02;;;;;;;2.05;0.65;;;7.90;59.50;;;;;;4972740;28;20031;-79
2021/04/04 01:26:46;;;;;;;1.30;0.43;;;7.90;59.60;;;;;;4971830;28;20058;-78
2021/04/04 01:29:13;;;;;;;0.00;0.00;;;7.80;59.70;;;;;;4973124;28;20022;-79
2021/04/04 01:31:40;;;;;;;0.03;0.00;;;7.80;60.00;;;;;;4956971;28;20492;-78
2021/04/04 01:34:06;;;;;;;0.57;0.52;;;7.70;60.30;;;;;;4972212;28;20043;-79
2021/04/04 01:36:32;;;;;;;0.13;0.10;;;7.70;60.40;;;;;;4961354;28;20428;-79
2021/04/04 01:39:00;;;;;;;0.40;0.10;;;7.70;60.50;;;;;;4951636;28;20050;-80
2021/04/04 01:41:34;;;;;;;0.30;0.10;;;7.60;60.80;;;;;;4972234;28;20039;-81
2021/04/04 01:44:05;;;;;;;0.80;0.30;;;7.50;60.90;;;;;;4971527;28;20464;-79
2021/04/04 01:46:31;;;;;;;0.00;0.00;;;7.50;60.80;;;;;;4939989;28;20057;-80
2021/04/04 01:48:58;;;;;;;3.20;1.55;;;7.50;60.90;;;;;;4955321;28;20034;-81
2021/04/04 01:51:24;;;;;;;1.00;0.63;;;7.50;61.00;;;;;;4964187;28;20047;-78
2021/04/04 01:53:50;;;;;;;0.60;0.45;;;7.50;61.10;;;;;;4970511;28;20045;-81
2021/04/04 01:56:16;;;;;;;0.00;0.00;;;7.50;61.30;;;;;;4992981;28;20037;-80
2021/04/04 01:58:42;;;;;;;0.30;0.20;;;7.40;61.50;;;;;;4977054;28;20034;-80
2021/04/04 02:01:09;;;;;;;1.13;0.82;;;7.40;61.60;;;;;;4991648;28;20034;-80
2021/04/04 02:03:35;;;;;;;0.00;0.00;;;7.40;61.60;;;;;;4987508;28;20395;-82
2021/04/04 02:06:01;;;;;;;0.00;0.00;;;7.40;61.80;;;;;;4980899;28;20395;-80
2021/04/04 02:08:27;;;;;;;8.10;0.57;;;7.40;61.80;;;;;;4979729;28;20049;-78
2021/04/04 02:10:53;;;;;;;2.40;0.32;;;7.30;61.70;;;;;;4970729;28;20039;-80
2021/04/04 02:13:20;;;;;;;0.65;0.20;;;7.30;62.00;;;;;;4988415;28;20502;-80
2021/04/04 02:15:46;;;;;;;6.55;0.45;;;7.20;62.20;;;;;;4988506;28;20035;-80
2021/04/04 02:18:12;;;;;;;0.00;0.00;;;7.20;62.70;;;;;;4986966;28;20034;-80
2021/04/04 02:20:39;;;;;;;0.40;0.40;;;7.10;62.70;;;;;;4986816;28;20034;-80
2021/04/04 02:23:07;;;;;;;0.00;0.00;;;7.10;62.70;;;;;;4986614;28;20037;-80
2021/04/04 02:25:33;;;;;;;0.52;0.52;;;7.10;62.80;;;;;;4971907;28;20039;-80
2021/04/04 02:27:59;;;;;;;0.00;0.00;;;7.10;62.70;;;;;;4990854;28;20475;-81
2021/04/04 02:30:25;;;;;;;1.30;0.50;;;7.10;63.10;;;;;;4970207;28;20064;-81
2021/04/04 02:33:11;;;;;;;1.17;0.40;;;7.10;62.70;;;;;;4970836;28;20038;-80
2021/04/04 02:35:41;;;;;;;1.27;0.28;;;7.10;62.90;;;;;;4957989;28;20046;-80
2021/04/04 02:38:16;;;;;;;2.08;0.70;;;7.00;63.20;;;;;;4976106;28;20034;-80
2021/04/04 02:40:43;;;;;;;0.15;0.08;;;7.00;63.30;;;;;;4962095;28;20365;-80
2021/04/04 02:43:13;;;;;;;6.32;0.65;;;7.00;63.20;;;;;;4991725;28;20034;-79
2021/04/04 02:45:39;;;;;;;0.08;0.00;;;7.00;63.20;;;;;;4991626;28;20045;-80
2021/04/04 02:48:08;;;;;;;0.60;0.45;;;7.00;63.30;;;;;;4992523;28;20030;-80
2021/04/04 02:50:34;;;;;;;3.97;0.77;;;7.00;63.40;;;;;;4993649;28;20494;-80
2021/04/04 02:53:01;;;;;;;0.13;0.10;;;6.90;63.50;;;;;;4992198;28;20038;-80
2021/04/04 02:55:35;;;;;;;1.70;0.88;;;6.90;63.60;;;;;;4993549;28;20026;-80
2021/04/04 02:58:06;;;;;;;1.92;0.52;;;6.90;63.60;;;;;;4991621;28;20030;-80
2021/04/04 03:00:33;;;;;;;0.30;0.20;;;6.80;63.80;;;;;;4991825;28;20045;-80
2021/04/04 03:03:00;;;;;;;0.60;0.38;;;6.90;64.00;;;;;;4992316;28;20045;-80
2021/04/04 03:05:26;;;;;;;0.52;0.10;;;6.80;63.90;;;;;;4992030;28;20038;-80
2021/04/04 03:07:52;;;;;;;0.52;0.20;;;6.80;63.90;;;;;;4993428;28;20463;-81
2021/04/04 03:10:18;;;;;;;0.45;0.10;;;6.80;64.00;;;;;;4991731;28;20038;-81
2021/04/04 03:12:45;;;;;;;1.08;0.20;;;6.80;64.10;;;;;;4991910;28;20042;-80
2021/04/04 03:15:13;;;;;;;0.65;0.20;;;6.80;64.00;;;;;;4991765;28;20033;-80
2021/04/04 03:17:41;;;;;;;0.25;0.10;;;6.80;64.10;;;;;;4993508;28;20045;-81
2021/04/04 03:20:09;;;;;;;2.17;0.47;;;6.80;64.20;;;;;;4991925;28;20030;-81
2021/04/04 03:22:39;;;;;;;9.93;0.68;;;6.70;64.30;;;;;;4992307;28;20030;-80
2021/04/04 03:25:07;;;;;;;0.03;0.03;;;6.70;64.30;;;;;;4977724;28;20396;-80
2021/04/04 03:27:36;;;;;;;0.60;0.47;;;6.70;64.40;;;;;;4995553;28;20046;-80
2021/04/04 03:30:06;;;;;;;0.68;0.08;;;6.70;64.40;;;;;;4995098;28;20030;-80
2021/04/04 03:32:36;;;;;;;0.15;0.13;;;6.70;64.60;;;;;;4995495;28;20050;-80
2021/04/04 03:35:05;;;;;;;0.28;0.28;;;6.70;64.70;;;;;;4995374;28;20041;-80
2021/04/04 03:37:31;;;;;;;4.85;1.08;;;6.60;64.90;;;;;;4995460;28;20026;-80
2021/04/04 03:39:58;;;;;;;0.13;0.10;;;6.60;65.00;;;;;;4978417;28;20034;-80
2021/04/04 03:42:25;;;;;;;0.85;0.30;;;6.60;65.10;;;;;;4995369;28;20037;-80
2021/04/04 03:44:51;;;;;;;0.50;0.20;;;6.60;65.00;;;;;;4994206;28;20050;-81
2021/04/04 03:47:17;;;;;;;0.00;0.00;;;6.60;65.00;;;;;;4993855;28;20038;-80
2021/04/04 03:49:43;;;;;;;0.00;0.00;;;6.50;65.00;;;;;;5026823;28;20455;-80
2021/04/04 03:52:09;;;;;;;0.00;0.00;;;6.50;65.20;;;;;;4994068;28;20045;-80
2021/04/04 03:54:36;;;;;;;0.22;0.22;;;6.50;65.30;;;;;;4975484;28;20046;-81
2021/04/04 03:57:02;;;;;;;0.68;0.20;;;6.50;65.30;;;;;;4990843;28;20038;-81
2021/04/04 03:59:28;;;;;;;0.00;0.00;;;6.40;65.30;;;;;;4995035;28;20475;-80
2021/04/04 04:01:54;;;;;;;0.00;0.00;;;6.40;65.50;;;;;;4994638;28;20045;-80
2021/04/04 04:04:20;;;;;;;4.95;0.17;;;6.40;65.50;;;;;;4994039;28;20049;-80
2021/04/04 04:06:47;;;;;;;2.80;0.83;;;6.40;65.50;;;;;;4978166;28;20505;-80
2021/04/04 04:09:14;;;;;;;1.50;0.35;;;6.40;65.30;;;;;;4995205;28;20034;-80
2021/04/04 04:11:41;;;;;;;0.20;0.20;;;6.40;65.20;;;;;;4996064;28;20042;-80
2021/04/04 04:14:11;;;;;;;0.40;0.05;;;6.50;65.10;;;;;;4997172;28;20030;-80
2021/04/04 04:16:37;;;;;;;0.43;0.15;;;6.50;65.00;;;;;;4995754;28;20042;-80
2021/04/04 04:19:03;;;;;;;3.03;0.68;;;6.40;64.90;;;;;;4993656;28;20039;-80
2021/04/04 04:21:32;;;;;;;0.20;0.20;;;6.40;64.90;;;;;;4994558;28;20042;-80
2021/04/04 04:23:59;;;;;;;1.17;0.68;;;6.40;64.90;;;;;;4995952;28;20026;-80
2021/04/04 04:26:25;;;;;;;6.50;0.68;;;6.40;64.90;;;;;;4995848;28;20049;-80
2021/04/04 04:28:51;;;;;;;0.82;0.77;;;6.40;64.90;;;;;;4994587;28;20026;-80
2021/04/04 04:31:23;;;;;;;4.50;0.65;;;6.40;64.80;;;;;;4993297;28;20046;-81
2021/04/04 04:33:51;;;;;;;10.50;1.33;;;6.40;64.70;;;;;;4977921;28;20487;-80
2021/04/04 04:36:17;;;;;;;0.87;0.60;;;6.40;64.70;;;;;;4974352;28;20054;-80
2021/04/04 04:38:43;;;;;;;0.25;0.25;;;6.40;64.70;;;;;;4987513;28;20049;-80
2021/04/04 04:41:10;;;;;;;3.20;1.38;;;6.40;64.70;;;;;;4994475;28;20034;-80
2021/04/04 04:43:37;;;;;;;1.00;0.57;;;6.40;64.70;;;;;;4994186;28;20034;-80
2021/04/04 04:46:03;;;;;;;0.22;0.20;;;6.40;64.70;;;;;;4992869;28;20058;-80
2021/04/04 04:48:31;;;;;;;0.20;0.17;;;6.40;64.70;;;;;;4993918;28;20046;-80
2021/04/04 04:50:57;;;;;;;0.05;0.00;;;6.30;64.80;;;;;;4994062;28;20027;-80
2021/04/04 04:53:23;;;;;;;0.20;0.13;;;6.30;64.90;;;;;;4994087;28;20030;-80
2021/04/04 04:55:49;;;;;;;0.10;0.10;;;6.30;65.00;;;;;;4995331;28;20086;-80
2021/04/04 04:58:15;;;;;;;0.00;0.00;;;6.20;64.90;;;;;;4993289;28;20045;-80
2021/04/04 05:00:41;;;;;;;0.87;0.20;;;6.20;64.90;;;;;;4977279;28;20038;-80
2021/04/04 05:03:07;;;;;;;0.60;0.53;;;6.20;65.10;;;;;;4993691;28;20403;-81
2021/04/04 05:05:33;;;;;;;0.57;0.47;;;6.20;65.40;;;;;;4995033;28;20030;-80
2021/04/04 05:07:59;;;;;;;0.00;0.00;;;6.10;65.40;;;;;;4993865;28;20467;-81
2021/04/04 05:10:26;;;;;;;6.63;0.30;;;6.10;65.30;;;;;;4993852;28;20041;-80
2021/04/04 05:12:57;;;;;;;9.87;0.67;;;6.10;65.30;;;;;;4992837;28;20042;-80
2021/04/04 05:15:25;;;;;;;0.30;0.25;;;6.10;65.40;;;;;;4994446;28;20463;-80
2021/04/04 05:17:51;;;;;;;8.90;0.40;;;6.10;65.40;;;;;;4993453;28;20034;-80
2021/04/04 05:20:18;;;;;;;8.87;1.37;;;6.10;65.30;;;;;;4993499;28;20038;-80
2021/04/04 05:22:44;;;;;;;0.57;0.23;;;6.10;65.40;;;;;;4994794;28;20021;-80
2021/04/04 05:25:10;;;;;;;1.38;0.65;;;6.00;65.30;;;;;;4993903;28;20427;-80
2021/04/04 05:27:37;;;;;;;0.13;0.00;;;6.00;65.40;;;;;;4996240;28;20464;-80
2021/04/04 05:30:10;;;;;;;1.43;0.80;;;6.00;65.30;;;;;;4993994;28;20383;-80
2021/04/04 05:32:48;;;;;;;0.67;0.40;;;6.00;65.20;;;;;;4994542;28;20046;-80
2021/04/04 05:35:24;;;;;;;0.50;0.20;;;6.00;65.20;;;;;;4993336;28;20026;-80
2021/04/04 05:37:51;;;;;;;0.27;0.07;;;6.00;65.20;;;;;;4993542;28;20033;-80
2021/04/04 05:40:26;;;;;;;0.40;0.20;;;6.00;65.20;;;;;;4992458;28;20030;-80
2021/04/04 05:42:57;;;;;;;3.60;0.70;;;6.00;65.30;;;;;;4991816;28;20057;-80
2021/04/04 05:45:36;;;;;;;0.97;0.33;;;6.00;65.40;;;;;;4993551;28;20050;-80
2021/04/04 05:48:20;;;;;;;0.47;0.20;;;6.00;65.40;;;;;;4994211;28;20403;-80
2021/04/04 05:51:24;;;;;;;2.63;1.30;;;6.00;65.20;;;;;;4994596;28;20034;-80
2021/04/04 05:53:56;;;;;;;1.23;0.73;;;6.00;65.20;;;;;;4994358;28;20038;-80
2021/04/04 05:56:37;;;;;;;1.37;0.57;;;6.00;65.20;;;;;;4992951;28;20026;-80
2021/04/04 05:59:06;;;;;;;0.10;0.10;;;6.00;65.20;;;;;;4993071;28;20033;-80
2021/04/04 06:01:32;;;;;;;1.23;0.43;;;6.00;65.20;;;;;;4992078;28;20034;-80
2021/04/04 06:04:20;;;;;;;19.70;1.83;;;6.00;65.20;;;;;;4993299;28;20391;-80
2021/04/04 06:07:02;;;;;;;0.25;0.15;;;6.00;65.10;;;;;;4994813;28;20490;-79
2021/04/04 06:09:39;;;;;;;;;;;6.00;65.20;;;;;;4994496;28;20390;-80
2021/04/04 06:12:26;;;;;;;2.47;0.67;;;6.00;65.20;;;;;;4992637;28;20307;-79
2021/04/04 06:15:11;;;;;;;0.00;0.00;;;6.00;65.40;;;;;;4993584;28;20033;-80
2021/04/04 06:17:51;;;;;;;0.30;0.10;;;6.00;65.40;;;;;;4993124;28;20034;-80
2021/04/04 06:20:45;;;;;;;3.60;0.77;;;6.00;65.50;;;;;;4992455;28;20034;-80
2021/04/04 06:23:21;;;;;;;1.20;0.30;;;6.00;65.70;;;;;;4992955;28;20030;-82
2021/04/04 06:25:59;;;;;;;0.50;0.20;;;6.20;66.20;;;;;;4960134;28;20029;-80
2021/04/04 06:29:03;;;;;;;0.15;0.00;;;6.30;65.10;;;;;;4993510;28;20034;-80
2021/04/04 06:31:49;;;;;;;0.00;0.00;;;6.50;64.70;;;;;;4970596;28;20047;-79
2021/04/04 06:34:17;;;;;;;0.17;0.17;;;6.70;64.40;;;;;;4971359;28;20365;-80
2021/04/04 06:37:08;;;;;;;0.10;0.05;;;6.80;65.30;;;;;;4956373;28;20054;-80
2021/04/04 06:40:08;;;;;;;0.00;0.00;;;6.90;64.40;;;;;;4967784;28;20043;-80
2021/04/04 06:42:51;;;;;;;14.57;0.70;;;7.10;64.20;;;;;;4967804;28;20046;-80
2021/04/04 06:45:51;;;;;;;1.08;0.05;;;7.20;63.80;;;;;;4956057;28;20054;-80
2021/04/04 06:48:47;;;;;;;2.13;0.80;;;7.50;63.50;;;;;;4967697;28;20058;-80
2021/04/04 06:51:41;;;;;;;0.13;0.13;;;7.60;64.00;;;;;;4967532;28;20607;-81
2021/04/04 06:54:11;;;;;;;0.75;0.57;;;7.70;63.00;;;;;;4958467;28;20428;-80
2021/04/04 06:57:01;;;;;;;0.13;0.10;;;7.90;62.90;;;;;;4948500;28;20048;-80
2021/04/04 06:59:54;;;;;;;1.45;1.23;;;8.00;62.60;;;;;;4947943;28;20061;-80
2021/04/04 07:02:22;;;;;;;1.83;0.73;;;8.20;62.30;;;;;;4959311;28;20042;-81
2021/04/04 07:04:54;;;;;;;0.60;0.52;;;8.30;62.00;;;;;;4996202;28;20038;-80
2021/04/04 07:07:36;;;;;;;0.20;0.13;;;8.50;61.80;;;;;;4996790;28;20479;-80
2021/04/04 07:10:24;;;;;;;2.53;0.17;;;8.60;61.60;;;;;;4995767;28;20026;-80
2021/04/04 07:13:18;;;;;;;1.77;0.20;;;8.70;61.50;;;;;;4993932;28;20046;-81
2021/04/04 07:15:57;;;;;;;2.90;0.65;;;8.80;61.20;;;;;;4997173;28;20037;-80
2021/04/04 07:18:38;;;;;;;0.00;0.00;;;8.90;61.00;;;;;;4995976;28;20466;-80
2021/04/04 07:21:36;;;;;;;2.42;0.90;;;9.00;60.90;;;;;;4996860;28;20035;-80
2021/04/04 07:24:11;;;;;;;0.47;0.22;;;9.00;60.90;;;;;;4975020;28;20053;-80
2021/04/04 07:26:59;;;;;;;1.25;0.30;;;9.10;60.70;;;;;;4970410;28;20386;-80
2021/04/04 07:30:03;;;;;;;1.20;0.85;;;9.10;60.70;;;;;;4952349;28;20027;-80
2021/04/04 07:32:36;;;;;;;1.50;0.68;;;9.20;60.70;;;;;;4972893;28;20043;-79
2021/04/04 07:35:13;;;;;;;1.15;0.40;;;9.30;60.60;;;;;;4975225;28;20054;-81
2021/04/04 07:37:52;;;;;;;0.80;0.55;;;9.40;60.30;;;;;;4959691;28;20030;-81
2021/04/04 07:40:22;;;;;;;0.10;0.10;;;9.40;60.10;;;;;;4974139;28;20046;-80
2021/04/04 07:43:10;;;;;;;0.25;0.10;;;9.50;60.00;;;;;;4958382;28;20031;-80
2021/04/04 07:45:39;;;;;;;12.43;0.47;;;9.50;60.00;;;;;;4958323;28;20043;-80
2021/04/04 07:48:25;;;;;;;1.13;0.90;;;9.50;59.80;;;;;;4966319;28;20516;-81
2021/04/04 07:50:56;;;;;;;0.03;0.03;;;9.60;59.90;;;;;;4953168;28;20062;-80
2021/04/04 07:53:47;;;;;;;0.57;0.00;;;9.70;59.60;;;;;;4972919;28;20051;-80
2021/04/04 07:56:15;;;;;;;0.00;0.00;;;9.70;59.60;;;;;;4967041;28;20031;-81
2021/04/04 07:58:52;;;;;;;0.28;0.13;;;9.80;59.40;;;;;;4974742;28;20045;-81
2021/04/04 08:01:20;;;;;;;7.15;1.17;;;9.90;59.20;;;;;;4987493;28;20034;-81
2021/04/04 08:03:52;;;;;;;4.72;0.77;;;9.90;59.20;;;;;;4994842;28;20039;-81
2021/04/04 08:06:18;;;;;;;0.38;0.20;;;10.10;59.10;;;;;;4996121;28;20471;-81
2021/04/04 08:08:49;;;;;;;1.23;0.30;;;10.20;58.90;;;;;;4975589;28;20043;-82
2021/04/04 08:11:23;;;;;;;1.20;0.45;;;10.40;58.70;;;;;;4982666;28;20026;-81
2021/04/04 08:13:55;;;;;;;0.20;0.00;;;10.50;58.50;;;;;;4994984;28;20415;-81
2021/04/04 08:16:46;;;;;;;0.20;0.13;;;10.60;58.10;;;;;;4995229;28;20041;-81
2021/04/04 08:19:12;;;;;;;2.85;0.95;;;10.70;58.00;;;;;;4991842;28;20501;-81
2021/04/04 08:21:48;;;;;;;2.15;0.70;;;10.80;58.00;;;;;;4995764;28;20057;-80
2021/04/04 08:24:36;;;;;;;0.80;0.30;;;11.00;57.80;;;;;;4994431;28;20041;-81
2021/04/04 08:27:07;;;;;;;0.70;0.25;;;11.20;57.50;;;;;;4994567;28;20486;-81
2021/04/04 08:29:43;;;;;;;0.00;0.00;;;11.40;57.00;;;;;;4994573;28;20045;-80
2021/04/04 08:32:11;;;;;;;0.10;0.00;;;11.40;56.90;;;;;;4994142;28;20145;-81
2021/04/04 08:34:48;;;;;;;0.38;0.17;;;11.50;56.80;;;;;;4994477;28;20022;-81
2021/04/04 08:37:19;;;;;;;4.65;0.85;;;11.50;56.80;;;;;;4975156;28;20495;-81
2021/04/04 08:39:55;;;;;;;0.00;0.00;;;11.60;56.60;;;;;;4995864;28;20037;-81
2021/04/04 08:42:21;;;;;;;2.97;0.32;;;11.80;56.30;;;;;;4994276;28;20038;-81
2021/04/04 08:45:11;;;;;;;1.75;0.35;;;11.80;56.10;;;;;;4994221;28;20372;-81
2021/04/04 08:47:40;;;;;;;1.50;0.45;;;11.80;56.10;;;;;;4994620;28;20030;-81
2021/04/04 08:50:08;;;;;;;3.72;0.70;;;11.90;55.90;;;;;;4994278;28;20037;-81
2021/04/04 08:52:36;;;;;;;0.93;0.32;;;12.10;55.80;;;;;;4994050;28;20041;-80
2021/04/04 08:55:03;;;;;;;0.35;0.17;;;12.30;55.60;;;;;;4992987;28;20037;-81
2021/04/04 08:57:43;;;;;;;0.85;0.35;;;12.40;55.40;;;;;;4994071;28;20400;-81
2021/04/04 09:00:11;;;;;;;0.70;0.27;;;12.50;55.10;;;;;;4974262;28;20042;-81
2021/04/04 09:02:44;;;;;;;1.85;0.55;;;12.50;55.60;;;;;;4970065;28;20368;-81
2021/04/04 09:05:10;;;;;;;1.08;0.57;;;12.70;55.00;;;;;;4995203;28;20026;-81
2021/04/04 09:07:42;;;;;;;0.75;0.55;;;12.80;54.80;;;;;;4993883;28;20483;-81
2021/04/04 09:10:11;;;;;;;0.52;0.30;;;12.90;54.50;;;;;;4988920;28;20030;-81
2021/04/04 09:12:38;;;;;;;3.33;0.95;;;12.90;54.30;;;;;;4995271;28;20046;-81
2021/04/04 09:15:09;;;;;;;0.80;0.47;;;12.90;54.30;;;;;;4993246;28;20130;-82
2021/04/04 09:17:35;;;;;;;4.78;1.27;;;13.00;54.10;;;;;;4993490;28;20042;-81
2021/04/04 09:20:03;;;;;;;0.60;0.25;;;13.00;53.90;;;;;;4993717;28;20038;-81
2021/04/04 09:22:29;;;;;;;0.22;0.17;;;13.20;54.00;;;;;;4994420;28;20038;-81
2021/04/04 09:24:56;;;;;;;1.02;0.43;;;13.30;53.70;;;;;;4976676;28;20038;-81
2021/04/04 09:27:27;;;;;;;1.75;0.90;;;13.40;53.50;;;;;;4993540;28;20049;-81
2021/04/04 09:29:55;;;;;;;3.63;0.65;;;13.60;53.30;;;;;;4994561;28;20038;-82
2021/04/04 09:32:35;;;;;;;0.30;0.10;;;13.50;52.90;;;;;;4992991;28;20042;-81
2021/04/04 09:35:02;;;;;;;0.30;0.17;;;13.60;52.90;;;;;;4976681;28;20047;-82
2021/04/04 09:37:28;;;;;;;0.10;0.00;;;13.60;52.70;;;;;;4992935;28;20027;-81
2021/04/04 09:39:55;;;;;;;0.95;0.40;;;13.70;52.70;;;;;;4960569;28;20038;-81
2021/04/04 09:42:21;;;;;;;2.25;1.20;;;13.70;52.60;;;;;;4994374;28;20037;-81
2021/04/04 09:44:47;;;;;;;1.08;0.30;;;13.70;52.60;;;;;;4993053;28;20605;-81
2021/04/04 09:47:13;;;;;;;1.05;0.30;;;13.80;52.50;;;;;;4992753;28;20026;-81
2021/04/04 09:49:48;;;;;;;0.20;0.10;;;14.00;52.30;;;;;;4978901;28;20052;-81
2021/04/04 09:52:17;;;;;;;0.93;0.32;;;14.20;52.00;;;;;;4990332;28;20157;-81
2021/04/04 09:55:02;;;;;;;0.52;0.25;;;14.20;51.70;;;;;;4993590;28;20046;-82
2021/04/04 09:57:29;;;;;;;1.88;0.20;;;14.30;51.70;;;;;;4992943;28;20038;-82
2021/04/04 09:59:55;;;;;;;1.35;0.38;;;14.40;51.40;;;;;;4993062;28;20130;-81
2021/04/04 10:02:34;;;;;;;1.55;0.30;;;14.60;51.30;;;;;;4976559;28;20045;-82
2021/04/04 10:05:01;;;;;;;2.85;0.63;;;14.80;51.10;;;;;;4993248;28;20030;-81
2021/04/04 10:07:33;;;;;;;0.95;0.13;;;14.90;50.80;;;;;;4993700;28;20038;-81
2021/04/04 10:09:59;;;;;;;2.95;0.30;;;15.20;50.80;;;;;;4992017;28;20041;-81
2021/04/04 10:12:26;;;;;;;6.32;0.73;;;15.20;50.30;;;;;;4993838;28;20038;-81
2021/04/04 10:15:05;;;;;;;2.13;0.73;;;15.30;50.20;;;;;;4992712;28;20037;-81
2021/04/04 10:17:32;;;;;;;0.93;0.25;;;15.30;49.90;;;;;;4991954;28;20034;-81
2021/04/04 10:19:59;;;;;;;3.40;0.30;;;15.30;49.90;;;;;;4992659;28;20042;-81
2021/04/04 10:22:25;;;;;;;0.40;0.17;;;15.40;49.80;;;;;;4993913;28;20042;-81
2021/04/04 10:24:51;;;;;;;1.83;0.70;;;15.40;49.70;;;;;;4989911;28;20038;-81
2021/04/04 10:27:26;;;;;;;1.35;0.45;;;15.60;49.60;;;;;;4992770;28;20026;-81
2021/04/04 10:30:11;;;;;;;20.85;1.02;;;15.70;49.40;;;;;;4993739;28;20053;-81
2021/04/04 10:32:41;;;;;;;0.20;0.00;;;15.70;49.20;;;;;;4993208;28;20054;-81
2021/04/04 10:35:08;;;;;;;0.95;0.13;;;15.90;49.10;;;;;;4996206;28;20407;-81
2021/04/04 10:37:34;;;;;;;0.28;0.10;;;15.90;48.60;;;;;;4996624;28;20042;-81
2021/04/04 10:40:07;;;;;;;2.05;0.35;;;15.90;48.60;;;;;;4997162;28;20079;-81
2021/04/04 10:42:33;;;;;;;2.35;0.50;;;15.90;48.60;;;;;;4996590;28;20035;-83
2021/04/04 10:45:13;;;;;;;5.90;0.45;;;16.10;48.60;;;;;;4996376;28;20049;-81
2021/04/04 10:47:40;;;;;;;0.15;0.00;;;16.30;48.40;;;;;;4996782;28;20038;-81
2021/04/04 10:50:09;;;;;;;0.35;0.17;;;16.30;48.10;;;;;;4979932;28;20491;-81
2021/04/04 10:52:35;;;;;;;1.50;0.30;;;16.30;47.90;;;;;;4980290;28;20053;-81
2021/04/04 10:55:02;;;;;;;1.65;0.60;;;16.40;47.90;;;;;;4996718;28;20034;-82
2021/04/04 10:57:29;;;;;;;0.88;0.40;;;16.50;47.80;;;;;;4997511;28;20034;-81
2021/04/04 10:59:58;;;;;;;1.63;0.30;;;16.60;47.80;;;;;;4996316;28;20045;-81
2021/04/04 11:02:24;;;;;;;0.47;0.22;;;16.80;47.60;;;;;;4996934;28;20038;-82
2021/04/04 11:04:51;;;;;;;7.47;0.70;;;16.90;47.00;;;;;;4997230;28;20049;-82
2021/04/04 11:07:20;;;;;;;2.80;0.88;;;16.80;47.00;;;;;;4995525;28;20033;-83
2021/04/04 11:09:46;;;;;;;1.83;0.32;;;16.70;46.90;;;;;;5013116;28;20042;-82
2021/04/04 11:12:13;;;;;;;4.45;0.32;;;16.70;46.70;;;;;;4996980;28;20046;-81
2021/04/04 11:14:39;;;;;;;2.33;1.05;;;16.80;46.80;;;;;;4995995;28;20030;-82
2021/04/04 11:17:05;;;;;;;0.98;0.28;;;17.00;46.70;;;;;;4995575;28;20423;-81
2021/04/04 11:19:31;;;;;;;1.20;0.20;;;17.10;46.60;;;;;;4995639;28;20042;-81
2021/04/04 11:21:59;;;;;;;1.90;0.68;;;17.20;46.60;;;;;;4996383;28;20030;-81
2021/04/04 11:24:25;;;;;;;0.98;0.40;;;17.30;46.10;;;;;;4995885;28;20500;-82
2021/04/04 11:26:58;;;;;;;1.02;0.25;;;17.40;46.20;;;;;;4996966;28;20038;-83
2021/04/04 11:29:25;;;;;;;2.88;1.10;;;17.40;45.90;;;;;;4995837;28;20026;-81
2021/04/04 11:31:56;;;;;;;0.88;0.40;;;17.40;45.50;;;;;;4995407;28;20454;-82
2021/04/04 11:34:39;;;;;;;1.45;0.40;;;17.30;45.50;;;;;;4978760;28;20154;-82
2021/04/04 11:37:11;;;;;;;0.65;0.10;;;17.40;45.60;;;;;;4994232;28;20034;-81
2021/04/04 11:39:38;;;;;;;0.55;0.15;;;17.50;45.30;;;;;;4998153;28;20053;-81
2021/04/04 11:42:04;;;;;;;0.00;0.00;;;17.60;45.20;;;;;;4995411;28;20030;-81
2021/04/04 11:44:39;;;;;;;0.75;0.55;;;17.60;45.00;;;;;;4995088;28;20042;-82
2021/04/04 11:47:17;;;;;;;1.33;0.25;;;17.70;44.80;;;;;;4980043;28;20030;-82
2021/04/04 11:49:50;;;;;;;6.15;0.32;;;17.70;44.60;;;;;;4981446;28;20033;-81
2021/04/04 11:52:16;;;;;;;1.17;0.60;;;17.70;44.50;;;;;;4994236;28;20395;-82
2021/04/04 11:57:11;;;;;;;3.75;0.40;;;17.90;44.40;;;;;;4997713;28;20038;-81
2021/04/04 11:59:37;;;;;;;1.75;0.85;;;17.90;44.10;;;;;;4996169;28;20038;-81
2021/04/04 12:02:04;;;;;;;7.47;0.63;;;17.90;43.70;;;;;;4994491;28;20034;-82
2021/04/04 12:04:32;;;;;;;2.42;0.57;;;17.80;43.70;;;;;;4995075;28;20034;-81
2021/04/04 12:07:07;;;;;;;1.00;0.25;;;17.80;43.80;;;;;;4995612;28;20043;-81
2021/04/04 12:09:34;;;;;;;4.97;0.75;;;17.90;43.30;;;;;;4994832;28;20038;-81
2021/04/04 12:12:00;;;;;;;0.52;0.13;;;17.80;42.90;;;;;;4994934;28;20034;-81
2021/04/04 12:14:27;;;;;;;2.10;0.50;;;17.80;42.90;;;;;;4994795;28;20507;-81
2021/04/04 12:16:53;;;;;;;0.60;0.40;;;17.80;42.60;;;;;;4995589;28;20050;-81
2021/04/04 12:19:27;;;;;;;0.20;0.20;;;17.80;42.50;;;;;;4994105;28;20034;-80
2021/04/04 12:21:53;;;;;;;0.47;0.22;;;17.80;42.00;;;;;;4994137;28;20038;-81
2021/04/04 12:24:19;;;;;;;1.30;0.70;;;17.70;41.80;;;;;;4994693;28;20038;-81
2021/04/04 12:26:45;;;;;;;0.22;0.15;;;17.80;42.10;;;;;;4995836;28;20042;-81
2021/04/04 12:29:12;;;;;;;1.13;0.30;;;17.90;41.90;;;;;;4994943;28;20435;-81
2021/04/04 12:31:41;;;;;;;1.63;0.65;;;17.90;41.40;;;;;;4993755;28;20042;-82
2021/04/04 12:34:08;;;;;;;0.15;0.10;;;17.90;41.40;;;;;;4990949;28;20050;-81
2021/04/04 12:36:44;;;;;;;1.05;0.10;;;17.90;41.40;;;;;;4994335;28;20034;-81
2021/04/04 12:39:12;;;;;;;0.82;0.30;;;17.90;41.10;;;;;;4995749;28;20037;-81
2021/04/04 12:41:38;;;;;;;0.25;0.10;;;17.90;41.20;;;;;;4995613;28;20045;-81
2021/04/04 12:44:05;;;;;;;0.22;0.03;;;18.00;41.20;;;;;;4994571;28;20030;-81
2021/04/04 12:46:31;;;;;;;0.90;0.40;;;18.10;40.80;;;;;;4993366;28;21056;-81
2021/04/04 12:48:57;;;;;;;1.38;0.50;;;18.10;40.70;;;;;;4977468;28;20049;-81
2021/04/04 12:51:24;;;;;;;1.73;0.30;;;18.00;40.30;;;;;;4995232;28;20031;-81
2021/04/04 12:53:51;;;;;;;0.52;0.05;;;17.90;40.20;;;;;;4995318;28;20042;-81
2021/04/04 12:56:35;;;;;;;1.30;0.60;;;17.90;40.10;;;;;;4993487;28;20046;-82
2021/04/04 12:59:03;;;;;;;4.00;1.30;;;17.80;40.10;;;;;;4994352;28;20042;-82
2021/04/04 13:01:30;;;;;;;1.35;0.80;;;17.80;40.10;;;;;;4994510;28;20046;-81
2021/04/04 13:03:56;;;;;;;6.35;1.42;;;17.90;40.10;;;;;;4993414;28;20035;-82
2021/04/04 13:06:22;;;;;;;12.20;0.63;;;18.10;40.00;;;;;;4994323;28;20042;-81
2021/04/04 13:08:48;;;;;;;4.35;1.75;;;18.10;39.70;;;;;;4993846;28;20065;-81
2021/04/04 13:11:16;;;;;;;6.35;2.38;;;18.20;39.60;;;;;;4977915;28;20046;-83
2021/04/04 13:13:46;;;;;;;2.28;0.95;;;18.30;39.60;;;;;;4993982;28;20053;-81
2021/04/04 13:16:16;;;;;;;2.42;0.85;;;18.30;39.40;;;;;;4993031;28;20034;-82